Time;durP1;ratioP1;P1;durP2;ratioP2;P2;SDS_P1;SDS_P2;PMS_P1;PMS_P2;Temp;Humidity;BMP_temperature;BMP_pressure;BME280_temperature;BME280_humidity;BME280_pressure;Samples;Min_cycle;Max_cycle;Signal;HPM_P1;HPM_P2
2021/04/13 00:01:35;;;;;;;15.55;9.63;;;307.20;2304.00;;;;;;5092258;28;20024;-71
2021/04/13 00:04:11;;;;;;;18.23;9.65;;;282.40;2278.40;;;;;;5082809;28;20484;-72
2021/04/13 00:06:40;;;;;;;13.48;9.40;;;282.30;2278.40;;;;;;5098925;28;20040;-70
2021/04/13 00:09:16;;;;;;;12.43;9.05;;;282.10;2278.40;;;;;;5091890;28;20026;-72
2021/04/13 00:11:46;;;;;;;14.68;8.65;;;282.10;2278.40;;;;;;5093312;28;20032;-70
2021/04/13 00:14:18;;;;;;;11.63;7.60;;;282.00;2278.40;;;;;;5094651;28;20032;-78
2021/04/13 00:16:47;;;;;;;15.10;8.18;;;281.80;2278.40;;;;;;5091965;28;20031;-69
2021/04/13 00:19:13;;;;;;;11.35;7.10;;;281.70;2278.40;;;;;;5081777;28;20220;-68
2021/04/13 00:21:43;;;;;;;9.23;6.97;;;281.70;2278.40;;;;;;5090699;28;20020;-76
2021/04/13 00:24:21;;;;;;;15.40;7.20;;;256.90;2252.80;;;;;;5092859;28;20027;-79
2021/04/13 00:26:50;;;;;;;11.15;7.20;;;256.60;2252.80;;;;;;5101054;28;20044;-78
2021/04/13 00:29:24;;;;;;;10.07;6.97;;;256.50;2252.80;;;;;;5090388;28;20060;-79
2021/04/13 00:31:58;;;;;;;10.43;7.32;;;256.50;2252.80;;;;;;5089885;28;20032;-71
2021/04/13 00:34:29;;;;;;;9.38;6.97;;;256.20;2252.80;;;;;;5087967;28;20107;-70
2021/04/13 00:37:20;;;;;;;12.25;7.32;;;256.20;2252.80;;;;;;5093044;28;20393;-71
2021/04/13 00:39:47;;;;;;;13.25;7.72;;;256.10;2252.80;;;;;;5085576;28;20039;-75
2021/04/13 00:42:20;;;;;;;8.43;6.90;;;256.00;2252.80;;;;;;5092214;28;20481;-78
2021/04/13 00:44:51;;;;;;;10.57;7.78;;;231.30;2252.80;;;;;;5092341;28;20042;-79
2021/04/13 00:47:27;;;;;;;9.40;7.28;;;256.00;2252.80;;;;;;5088162;28;20044;-78
2021/04/13 00:49:55;;;;;;;9.43;6.90;;;;;;;;;;5093136;28;20028;-77
2021/04/13 00:52:27;;;;;;;13.52;6.85;;;231.20;2252.80;;;;;;5092171;28;20107;-71
2021/04/13 00:54:58;;;;;;;9.45;7.43;;;231.00;2252.80;;;;;;5092309;28;20044;-70
2021/04/13 00:57:33;;;;;;;8.82;6.88;;;;;;;;;;5091762;28;20186;-79
2021/04/13 01:00:02;;;;;;;13.00;6.72;;;230.90;2252.80;;;;;;5101053;28;20032;-78
2021/04/13 01:02:31;;;;;;;7.53;6.57;;;230.70;2252.80;;;;;;5092358;28;20073;-75
2021/04/13 01:05:18;;;;;;;10.80;6.13;;;230.60;2252.80;;;;;;5091831;28;20103;-68
2021/04/13 01:07:48;;;;;;;11.55;6.13;;;230.50;2252.80;;;;;;5092334;28;20028;-73
2021/04/13 01:10:30;;;;;;;11.77;6.10;;;230.40;2252.80;;;;;;5091817;28;20020;-76
2021/04/13 01:13:05;;;;;;;7.90;6.07;;;230.40;2252.80;;;;;;5093303;28;20023;-75
2021/04/13 01:15:31;;;;;;;8.80;5.90;;;230.40;2252.80;;;;;;5078173;28;20022;-74
2021/04/13 01:17:57;;;;;;;9.80;6.53;;;230.40;2252.80;;;;;;5091884;28;20075;-74
2021/04/13 01:20:56;;;;;;;9.02;6.43;;;205.70;2252.80;;;;;;5092778;28;20059;-71
2021/04/13 01:23:33;;;;;;;8.65;6.00;;;205.60;2252.80;;;;;;5092135;28;20111;-73
2021/04/13 01:26:03;;;;;;;7.70;6.20;;;205.60;2252.80;;;;;;5089355;28;20036;-70
2021/04/13 01:28:32;;;;;;;10.68;6.40;;;205.60;2252.80;;;;;;5091931;28;20024;-74
2021/04/13 01:31:41;;;;;;;9.05;6.32;;;205.50;2252.80;;;;;;5097864;28;20035;-72
2021/04/13 01:34:09;;;;;;;8.60;6.20;;;205.60;2252.80;;;;;;5084286;28;20173;-76
2021/04/13 01:36:40;;;;;;;7.38;6.07;;;205.70;2252.80;;;;;;5080647;28;20052;-76
2021/04/13 01:39:15;;;;;;;8.80;6.45;;;205.50;2252.80;;;;;;5085224;28;20031;-74
2021/04/13 01:41:47;;;;;;;7.57;6.15;;;;;;;;;;5081144;28;20043;-76
2021/04/13 01:44:17;;;;;;;8.73;6.32;;;205.30;2252.80;;;;;;5086017;28;20044;-70
2021/04/13 01:46:43;;;;;;;9.93;6.47;;;205.20;2252.80;;;;;;5083685;28;20393;-71
2021/04/13 01:49:09;;;;;;;9.25;6.30;;;205.10;2252.80;;;;;;5078120;28;20043;-70
2021/04/13 01:51:35;;;;;;;7.65;6.45;;;205.00;2252.80;;;;;;5083712;28;20020;-71
2021/04/13 01:54:05;;;;;;;8.70;6.47;;;204.90;2252.80;;;;;;5071416;28;20540;-74
2021/04/13 01:56:58;;;;;;;8.02;6.60;;;204.80;2252.80;;;;;;5071761;28;20028;-75
2021/04/13 01:59:33;;;;;;;6.97;6.32;;;180.10;2252.80;;;;;;5075546;28;20029;-75
2021/04/13 02:02:01;;;;;;;7.38;6.38;;;180.00;2252.80;;;;;;5096885;28;20099;-74
2021/04/13 02:04:32;;;;;;;10.60;6.80;;;179.90;2252.80;;;;;;5092946;28;20035;-79
2021/04/13 02:07:30;;;;;;;8.02;6.75;;;180.00;2252.80;;;;;;5074938;28;20111;-74
2021/04/13 02:10:07;;;;;;;8.80;6.80;;;179.90;2252.80;;;;;;5088080;28;20059;-77
2021/04/13 02:12:38;;;;;;;8.52;7.10;;;179.80;2252.80;;;;;;5095930;28;20051;-74
2021/04/13 02:15:18;;;;;;;8.30;6.82;;;179.80;2252.80;;;;;;5099887;28;20027;-76
2021/04/13 02:18:07;;;;;;;8.15;6.78;;;179.80;2252.80;;;;;;5102154;28;20032;-77
2021/04/13 02:20:36;;;;;;;8.45;6.65;;;179.70;2252.80;;;;;;5081172;28;20032;-73
2021/04/13 02:23:04;;;;;;;7.60;6.80;;;179.70;2252.80;;;;;;5095918;28;20036;-76
2021/04/13 02:25:33;;;;;;;7.50;6.80;;;179.70;2252.80;;;;;;5095070;28;20051;-70
2021/04/13 02:28:00;;;;;;;7.60;6.72;;;179.70;2252.80;;;;;;5097636;28;20031;-80
2021/04/13 02:30:29;;;;;;;8.40;6.85;;;179.70;2252.80;;;;;;5104526;28;20480;-79
2021/04/13 02:32:55;;;;;;;9.07;7.03;;;179.70;2252.80;;;;;;5095879;28;20043;-76
2021/04/13 02:35:24;;;;;;;9.55;7.03;;;179.60;2252.80;;;;;;5091648;28;20052;-70
2021/04/13 02:37:54;;;;;;;7.78;6.47;;;179.50;2252.80;;;;;;5075213;28;20115;-79
2021/04/13 02:40:30;;;;;;;7.00;6.30;;;179.50;2252.80;;;;;;5083634;28;20545;-74
2021/04/13 02:43:01;;;;;;;12.07;7.60;;;179.40;2252.80;;;;;;5084490;28;20035;-70
2021/04/13 02:45:49;;;;;;;9.48;7.07;;;179.40;2252.80;;;;;;5104279;28;20043;-70
2021/04/13 02:48:22;;;;;;;7.13;6.43;;;179.60;2252.80;;;;;;5094366;28;20032;-69
2021/04/13 02:50:49;;;;;;;7.23;6.53;;;179.70;2252.80;;;;;;5094127;28;20647;-76
2021/04/13 02:53:21;;;;;;;8.63;6.90;;;179.70;2252.80;;;;;;5094309;28;20036;-76
2021/04/13 02:55:55;;;;;;;8.82;6.60;;;179.70;2252.80;;;;;;5092326;28;20040;-75
2021/04/13 02:58:27;;;;;;;11.63;6.75;;;179.70;2252.80;;;;;;5084147;28;20026;-70
2021/04/13 03:00:58;;;;;;;7.18;6.47;;;179.60;2252.80;;;;;;5093011;28;20031;-79
2021/04/13 03:03:44;;;;;;;7.63;6.40;;;179.60;2252.80;;;;;;5094033;28;20024;-80
2021/04/13 03:06:10;;;;;;;7.63;5.88;;;179.70;2252.80;;;;;;5094835;28;20063;-79
2021/04/13 03:08:41;;;;;;;7.40;6.70;;;179.80;2252.80;;;;;;5094016;28;20059;-78
2021/04/13 03:11:19;;;;;;;7.00;6.30;;;179.60;2252.80;;;;;;5094175;28;20396;-78
2021/04/13 03:13:47;;;;;;;7.82;6.53;;;179.60;2252.80;;;;;;5094408;28;20028;-74
2021/04/13 03:16:15;;;;;;;6.75;6.07;;;179.70;2252.80;;;;;;5093707;28;20027;-72
2021/04/13 03:18:42;;;;;;;7.20;6.50;;;179.70;2252.80;;;;;;5097107;28;20433;-73
2021/04/13 03:21:21;;;;;;;6.65;6.03;;;179.70;2252.80;;;;;;5095543;28;20035;-71
2021/04/13 03:23:49;;;;;;;7.00;6.25;;;179.70;2252.80;;;;;;5094033;28;20036;-71
2021/04/13 03:26:24;;;;;;;8.52;6.20;;;179.60;2252.80;;;;;;5094781;28;20085;-79
2021/04/13 03:28:58;;;;;;;7.07;6.38;;;179.60;2252.80;;;;;;5093483;28;20059;-79
2021/04/13 03:31:31;;;;;;;9.85;6.40;;;179.50;2252.80;;;;;;5093515;28;20032;-75
2021/04/13 03:34:01;;;;;;;7.70;6.60;;;179.50;2252.80;;;;;;5091157;28;20024;-70
2021/04/13 03:36:28;;;;;;;7.72;7.00;;;179.50;2252.80;;;;;;5092675;28;20097;-79
2021/04/13 03:39:04;;;;;;;7.13;6.43;;;179.50;2252.80;;;;;;5090851;28;20020;-71
2021/04/13 03:41:32;;;;;;;8.30;6.07;;;179.50;2252.80;;;;;;5076056;28;20036;-75
2021/04/13 03:44:00;;;;;;;6.57;5.82;;;179.50;2252.80;;;;;;5086913;28;20035;-72
2021/04/13 03:46:32;;;;;;;7.40;6.70;;;179.40;2252.80;;;;;;5074178;28;20431;-77
2021/04/13 03:48:58;;;;;;;6.95;5.97;;;179.50;2252.80;;;;;;5087955;28;20476;-72
2021/04/13 03:51:33;;;;;;;7.75;6.30;;;179.50;2252.80;;;;;;5079984;28;20020;-78
2021/04/13 03:53:59;;;;;;;7.10;6.40;;;179.50;2252.80;;;;;;5076491;28;20041;-72
2021/04/13 03:56:26;;;;;;;9.68;6.65;;;179.50;2252.80;;;;;;5076049;28;20089;-81
2021/04/13 03:58:58;;;;;;;8.82;6.70;;;179.50;2252.80;;;;;;5092289;28;20035;-72
2021/04/13 04:01:29;;;;;;;7.20;6.50;;;179.50;2252.80;;;;;;5087708;28;20024;-71
2021/04/13 04:03:58;;;;;;;7.07;6.28;;;179.60;2252.80;;;;;;5093428;28;20611;-72
2021/04/13 04:06:59;;;;;;;8.43;6.45;;;179.70;2252.80;;;;;;5095661;28;20044;-74
2021/04/13 04:09:28;;;;;;;9.27;6.40;;;179.70;2252.80;;;;;;5097586;28;20028;-76
2021/04/13 04:11:54;;;;;;;7.20;6.50;;;179.60;2252.80;;;;;;5099522;28;20024;-80
2021/04/13 04:14:24;;;;;;;7.18;6.47;;;179.60;2252.80;;;;;;5089830;28;20020;-81
2021/04/13 04:16:50;;;;;;;7.13;6.10;;;179.50;2252.80;;;;;;5093167;28;20024;-76
2021/04/13 04:19:24;;;;;;;8.25;5.88;;;179.50;2252.80;;;;;;5088547;28;20362;-72
2021/04/13 04:22:19;;;;;;;7.03;5.90;;;179.50;2252.80;;;;;;5081373;28;20032;-72
2021/04/13 04:24:44;;;;;;;6.88;6.18;;;179.60;2252.80;;;;;;5080387;28;20379;-70
2021/04/13 04:27:13;;;;;;;6.50;5.80;;;179.70;2252.80;;;;;;5076923;28;20054;-68
2021/04/13 04:29:42;;;;;;;7.38;6.28;;;179.70;2252.80;;;;;;5088493;28;20162;-68
2021/04/13 04:32:20;;;;;;;8.00;6.00;;;179.70;2252.80;;;;;;5090164;28;20056;-70
2021/04/13 04:34:46;;;;;;;7.68;6.20;;;179.70;2252.80;;;;;;5087566;28;20034;-68
2021/04/13 04:37:23;;;;;;;6.55;5.93;;;179.90;2252.80;;;;;;5087456;28;20028;-69
2021/04/13 04:40:09;;;;;;;6.40;5.63;;;179.90;2252.80;;;;;;5087390;28;20046;-68
2021/04/13 04:42:46;;;;;;;7.10;5.80;;;180.00;2252.80;;;;;;5082850;28;20063;-66
2021/04/13 04:45:36;;;;;;;6.32;5.60;;;180.10;2252.80;;;;;;5089684;28;20031;-67
2021/04/13 04:48:22;;;;;;;7.10;5.88;;;180.10;2252.80;;;;;;5080988;28;20028;-67
2021/04/13 04:50:50;;;;;;;7.45;6.20;;;204.80;2252.80;;;;;;5074429;28;20032;-67
2021/04/13 04:53:18;;;;;;;6.40;5.70;;;204.90;2252.80;;;;;;5077850;28;20112;-68
2021/04/13 04:55:47;;;;;;;6.30;5.70;;;205.10;2252.80;;;;;;5076963;28;20032;-68
2021/04/13 04:58:14;;;;;;;6.50;5.80;;;205.20;2252.80;;;;;;5086496;28;20044;-68
2021/04/13 05:00:40;;;;;;;8.02;6.68;;;205.30;2252.80;;;;;;5087206;28;20038;-74
2021/04/13 05:03:05;;;;;;;9.38;6.05;;;205.60;2252.80;;;;;;5083565;28;20032;-68
2021/04/13 05:05:31;;;;;;;8.68;6.03;;;230.70;2252.80;;;;;;5084848;28;20040;-70
2021/04/13 05:07:57;;;;;;;10.60;6.85;;;230.90;2252.80;;;;;;5089643;28;20038;-69
2021/04/13 05:10:22;;;;;;;7.38;6.28;;;231.20;2252.80;;;;;;5080102;28;20438;-69
2021/04/13 05:12:48;;;;;;;8.10;7.00;;;230.90;2252.80;;;;;;5081311;28;20106;-68
2021/04/13 05:15:14;;;;;;;17.08;10.02;;;230.60;2252.80;;;;;;5082529;28;20024;-69
2021/04/13 05:17:40;;;;;;;14.05;9.95;;;205.60;2252.80;;;;;;5085989;28;20397;-68
2021/04/13 05:20:06;;;;;;;9.50;7.10;;;205.30;2252.80;;;;;;5080041;28;20120;-67
2021/04/13 05:22:32;;;;;;;11.48;8.18;;;205.10;2252.80;;;;;;5085107;28;20032;-66
2021/04/13 05:24:58;;;;;;;8.63;7.03;;;205.00;2252.80;;;;;;5084793;28;20032;-66
2021/04/13 05:27:24;;;;;;;9.35;7.07;;;204.80;2252.80;;;;;;5088071;28;20033;-69
2021/04/13 05:29:50;;;;;;;39.97;16.52;;;180.10;2252.80;;;;;;5088352;28;20028;-67
2021/04/13 05:32:17;;;;;;;10.73;7.15;;;204.80;2252.80;;;;;;5082945;28;20462;-69
2021/04/13 05:34:42;;;;;;;8.20;6.32;;;180.10;2252.80;;;;;;5082371;28;20103;-69
2021/04/13 05:37:10;;;;;;;8.18;6.32;;;180.00;2252.80;;;;;;5084551;28;20504;-73
2021/04/13 05:39:35;;;;;;;8.18;6.28;;;204.80;2252.80;;;;;;5084074;28;20020;-68
2021/04/13 05:42:01;;;;;;;7.80;6.18;;;204.80;2252.80;;;;;;5075874;28;20093;-72
2021/04/13 05:44:27;;;;;;;7.90;6.22;;;205.10;2252.80;;;;;;5077425;28;20024;-71
2021/04/13 05:46:53;;;;;;;8.57;5.97;;;205.20;2252.80;;;;;;5080245;28;20485;-72
2021/04/13 05:49:19;;;;;;;9.52;7.80;;;205.20;2252.80;;;;;;5087769;28;20039;-69
2021/04/13 05:51:45;;;;;;;6.85;6.13;;;205.20;2252.80;;;;;;5085725;28;20024;-69
2021/04/13 05:54:11;;;;;;;13.00;8.05;;;205.30;2252.80;;;;;;5082297;28;20174;-69
2021/04/13 05:56:40;;;;;;;8.77;6.25;;;205.30;2252.80;;;;;;5085851;28;20469;-72
2021/04/13 05:59:11;;;;;;;7.90;6.05;;;205.30;2252.80;;;;;;5087470;28;20048;-70
2021/04/13 06:01:37;;;;;;;6.88;6.10;;;205.20;2252.80;;;;;;5089246;28;20020;-70
2021/04/13 06:04:03;;;;;;;11.68;6.55;;;205.30;2252.80;;;;;;5082763;28;20027;-70
2021/04/13 06:06:31;;;;;;;9.35;7.00;;;205.40;2252.80;;;;;;5086221;28;20143;-71
2021/04/13 06:08:56;;;;;;;9.57;7.40;;;205.40;2252.80;;;;;;5083497;28;20017;-83
2021/04/13 06:11:27;;;;;;;9.68;6.32;;;205.50;2252.80;;;;;;5091738;28;20034;-72
2021/04/13 06:13:55;;;;;;;6.45;5.63;;;205.50;2252.80;;;;;;5077745;28;20017;-75
2021/04/13 06:16:22;;;;;;;10.10;7.47;;;205.60;2252.80;;;;;;5086582;28;20020;-78
2021/04/13 06:18:49;;;;;;;9.77;7.20;;;205.60;2252.80;;;;;;5089871;28;20035;-72
2021/04/13 06:21:15;;;;;;;11.25;6.88;;;205.60;2252.80;;;;;;5085468;28;20431;-70
2021/04/13 06:23:40;;;;;;;12.73;7.50;;;205.60;2252.80;;;;;;5089347;28;20104;-73
2021/04/13 06:26:07;;;;;;;8.85;7.07;;;205.70;2252.80;;;;;;5089618;28;20557;-76
2021/04/13 06:28:33;;;;;;;10.27;7.50;;;205.50;2252.80;;;;;;5090437;28;20107;-71
2021/04/13 06:30:58;;;;;;;8.77;7.18;;;205.50;2252.80;;;;;;5086551;28;20107;-72
2021/04/13 06:33:27;;;;;;;8.43;7.07;;;205.60;2252.80;;;;;;5087640;28;20045;-71
2021/04/13 06:35:59;;;;;;;9.50;6.95;;;205.70;2252.80;;;;;;5081700;28;20325;-69
2021/04/13 06:38:26;;;;;;;9.35;7.05;;;205.70;2252.80;;;;;;5089469;28;20048;-76
2021/04/13 06:41:22;;;;;;;10.30;7.00;;;230.40;2252.80;;;;;;5088020;28;20055;-75
2021/04/13 06:44:25;;;;;;;13.55;9.05;;;230.40;2252.80;;;;;;5084345;28;20040;-76
2021/04/13 06:46:57;;;;;;;15.20;10.43;;;230.40;2252.80;;;;;;5080678;28;20071;-74
2021/04/13 06:49:57;;;;;;;18.52;11.32;;;205.70;2252.80;;;;;;5076959;28;20505;-72
2021/04/13 06:52:55;;;;;;;13.23;9.50;;;205.60;2252.80;;;;;;5094633;28;20039;-74
2021/04/13 06:55:42;;;;;;;9.07;6.55;;;205.50;2252.80;;;;;;5092306;28;20051;-75
2021/04/13 06:58:35;;;;;;;11.32;6.43;;;205.40;2252.80;;;;;;5082450;28;20159;-73
2021/04/13 07:01:23;;;;;;;7.43;5.78;;;205.50;2252.80;;;;;;5087194;28;20036;-74
2021/04/13 07:04:01;;;;;;;7.68;5.63;;;205.70;2252.80;;;;;;5079276;28;20100;-70
2021/04/13 07:06:50;;;;;;;9.35;6.07;;;205.70;2252.80;;;;;;5090216;28;20062;-74
2021/04/13 07:09:30;;;;;;;8.43;6.15;;;230.40;2252.80;;;;;;5102723;28;20031;-75
2021/04/13 07:12:01;;;;;;;6.95;6.22;;;230.50;2252.80;;;;;;5097118;28;20104;-78
2021/04/13 07:14:49;;;;;;;7.28;5.78;;;230.50;2252.80;;;;;;5085006;28;20579;-74
2021/04/13 07:17:16;;;;;;;7.00;6.07;;;205.70;2252.80;;;;;;5092104;28;20099;-72
2021/04/13 07:19:54;;;;;;;10.23;6.60;;;205.70;2252.80;;;;;;5096481;27;20085;-68
2021/04/13 07:22:30;;;;;;;7.95;6.38;;;205.70;2252.80;;;;;;5091631;28;20542;-71
2021/04/13 07:25:14;;;;;;;7.60;5.82;;;205.60;2252.80;;;;;;5093836;28;20063;-73
2021/04/13 07:28:02;;;;;;;9.20;6.07;;;205.50;2252.80;;;;;;5082269;28;20040;-74
2021/04/13 07:30:45;;;;;;;10.50;5.95;;;205.30;2252.80;;;;;;5085801;28;20386;-72
2021/04/13 07:33:21;;;;;;;7.35;5.82;;;205.50;2252.80;;;;;;5089498;28;20104;-71
2021/04/13 07:35:49;;;;;;;7.82;6.30;;;205.50;2252.80;;;;;;5082257;28;20024;-71
2021/04/13 07:38:26;;;;;;;12.13;6.50;;;205.60;2252.80;;;;;;5082935;28;20074;-68
2021/04/13 07:40:57;;;;;;;8.07;6.10;;;205.50;2252.80;;;;;;5076343;28;20036;-70
2021/04/13 07:43:28;;;;;;;7.63;6.38;;;205.70;2252.80;;;;;;5078717;28;20032;-70
2021/04/13 07:46:33;;;;;;;8.75;6.40;;;205.60;2252.80;;;;;;5079751;28;20111;-68
2021/04/13 07:49:14;;;;;;;;;;;205.50;2252.80;;;;;;5079221;28;20028;-69
2021/04/13 07:51:46;;;;;;;8.07;6.40;;;205.60;2252.80;;;;;;5090778;28;20253;-70
2021/04/13 07:54:23;;;;;;;9.15;7.00;;;205.60;2252.80;;;;;;5083846;28;20078;-71
2021/04/13 07:56:58;;;;;;;8.77;7.00;;;205.60;2252.80;;;;;;5086919;28;20028;-69
2021/04/13 07:59:28;;;;;;;14.25;6.15;;;230.50;2252.80;;;;;;5082988;28;20104;-68
2021/04/13 08:01:55;;;;;;;11.85;6.97;;;230.50;2252.80;;;;;;5081695;28;20020;-70
2021/04/13 08:04:23;;;;;;;8.50;6.18;;;205.70;2252.80;;;;;;5085718;28;20516;-69
2021/04/13 08:06:59;;;;;;;8.52;6.38;;;230.40;2252.80;;;;;;5091245;28;20044;-72
2021/04/13 08:09:28;;;;;;;10.57;6.45;;;205.60;2252.80;;;;;;5082423;28;20024;-69
2021/04/13 08:12:13;;;;;;;12.52;8.30;;;205.60;2252.80;;;;;;5088572;28;20040;-70
2021/04/13 08:15:02;;;;;;;24.55;16.38;;;205.60;2252.80;;;;;;5084881;28;20024;-71
2021/04/13 08:17:31;;;;;;;9.00;7.10;;;205.60;2252.80;;;;;;5086373;28;20071;-70
2021/04/13 08:20:08;;;;;;;11.75;6.75;;;205.60;2252.80;;;;;;5082794;28;20039;-70
2021/04/13 08:22:48;;;;;;;8.98;7.70;;;205.70;2252.80;;;;;;5083507;28;20043;-69
2021/04/13 08:25:30;;;;;;;8.68;6.30;;;230.40;2252.80;;;;;;5089331;28;20031;-69
2021/04/13 08:28:10;;;;;;;8.25;6.22;;;230.40;2252.80;;;;;;5077921;28;20063;-70
2021/04/13 08:32:49;;;;;;;10.13;6.43;;;230.40;2252.80;;;;;;5085573;28;20027;-68
2021/04/13 08:33:44;;;;;;;9.95;6.82;;;230.50;2252.80;;;;;;5086037;28;20040;-71
2021/04/13 08:36:18;;;;;;;15.93;8.68;;;230.60;2252.80;;;;;;5086789;28;20029;-72
2021/04/13 08:39:10;;;;;;;10.30;7.20;;;230.70;2252.80;;;;;;5082947;28;20108;-69
2021/04/13 08:42:02;;;;;;;7.97;6.70;;;230.70;2252.80;;;;;;5081906;28;20072;-69
2021/04/13 08:45:01;;;;;;;8.88;6.75;;;230.70;2252.80;;;;;;5087679;28;20173;-71
2021/04/13 08:47:38;;;;;;;8.63;6.75;;;230.90;2252.80;;;;;;5078751;28;20113;-69
2021/04/13 08:50:24;;;;;;;9.95;7.00;;;230.90;2252.80;;;;;;5075052;28;20035;-68
2021/04/13 08:53:06;;;;;;;10.18;6.30;;;231.10;2252.80;;;;;;5086118;28;20115;-70
2021/04/13 08:55:35;;;;;;;8.88;7.00;;;231.00;2252.80;;;;;;5080882;28;20079;-69
2021/04/13 08:58:06;;;;;;;8.15;6.00;;;230.90;2252.80;;;;;;5092676;28;20354;-91
2021/04/13 09:00:47;;;;;;;9.85;6.30;;;230.90;2252.80;;;;;;5090585;28;20061;-90
2021/04/13 09:03:18;;;;;;;8.68;6.03;;;230.90;2252.80;;;;;;5090375;28;20020;-79
2021/04/13 09:05:48;;;;;;;8.55;6.15;;;231.00;2252.80;;;;;;5081441;28;20535;-68
2021/04/13 09:08:29;;;;;;;9.30;6.60;;;231.00;2252.80;;;;;;5085371;28;20024;-89
2021/04/13 09:11:19;;;;;;;12.93;9.23;;;231.20;2252.80;;;;;;5088518;28;20035;-91
2021/04/13 09:14:06;;;;;;;13.15;9.52;;;231.30;2252.80;;;;;;5093394;28;20443;-77
2021/04/13 09:16:38;;;;;;;20.40;11.57;;;231.20;2252.80;;;;;;5086037;28;20017;-70
2021/04/13 09:19:18;;;;;;;13.05;7.43;;;256.00;2252.80;;;;;;5093053;28;20377;-70
2021/04/13 09:21:50;;;;;;;10.65;8.00;;;256.00;2252.80;;;;;;5093487;28;20083;-72
2021/04/13 09:24:25;;;;;;;10.65;6.43;;;256.00;2252.80;;;;;;5093679;28;20036;-68
2021/04/13 09:27:14;;;;;;;10.43;6.78;;;231.10;2252.80;;;;;;5085088;28;20032;-73
2021/04/13 09:29:46;;;;;;;11.00;6.90;;;231.00;2252.80;;;;;;5094881;28;20081;-67
2021/04/13 09:32:37;;;;;;;10.05;7.30;;;230.80;2252.80;;;;;;5089659;28;20033;-72
2021/04/13 09:35:03;;;;;;;9.10;5.55;;;230.90;2252.80;;;;;;5105089;27;20545;-73
2021/04/13 09:37:41;;;;;;;7.85;5.93;;;230.90;2252.80;;;;;;5103319;27;20032;-68
2021/04/13 09:40:30;;;;;;;13.50;5.93;;;230.90;2252.80;;;;;;5109496;28;20035;-71
2021/04/13 09:43:16;;;;;;;8.00;5.75;;;231.10;2252.80;;;;;;5099404;28;20063;-69
2021/04/13 09:46:02;;;;;;;6.85;5.57;;;231.00;2252.80;;;;;;5113321;27;20054;-69
2021/04/13 09:48:58;;;;;;;8.70;6.65;;;230.90;2252.80;;;;;;5109942;28;20031;-67
2021/04/13 09:51:37;;;;;;;15.73;8.95;;;230.80;2252.80;;;;;;5110225;28;20473;-65
2021/04/13 09:54:29;;;;;;;20.80;13.18;;;230.90;2252.80;;;;;;5110902;28;20056;-68
2021/04/13 09:57:16;;;;;;;7.75;5.95;;;230.70;2252.80;;;;;;5109983;27;20035;-69
2021/04/13 09:59:53;;;;;;;7.38;6.00;;;230.70;2252.80;;;;;;5119775;27;20035;-67
2021/04/13 10:02:40;;;;;;;8.77;6.00;;;230.60;2252.80;;;;;;5113379;27;20040;-70
2021/04/13 10:05:13;;;;;;;12.40;6.78;;;230.50;2252.80;;;;;;5110079;27;20043;-68
2021/04/13 10:07:55;;;;;;;12.40;7.03;;;230.50;2252.80;;;;;;5110409;27;20071;-67
2021/04/13 10:10:36;;;;;;;8.07;6.53;;;230.50;2252.80;;;;;;5106209;27;20039;-70
2021/04/13 10:13:09;;;;;;;10.27;7.35;;;230.40;2252.80;;;;;;5089688;28;20039;-69
2021/04/13 10:15:41;;;;;;;10.50;7.50;;;230.50;2252.80;;;;;;5089656;28;20107;-68
2021/04/13 10:18:24;;;;;;;13.00;7.88;;;230.60;2252.80;;;;;;5091686;28;20253;-71
2021/04/13 10:20:53;;;;;;;10.60;7.40;;;230.60;2252.80;;;;;;5092993;28;20020;-69
2021/04/13 10:23:19;;;;;;;9.65;7.78;;;230.50;2252.80;;;;;;5088458;28;20032;-68
2021/04/13 10:26:01;;;;;;;12.13;7.72;;;230.60;2252.80;;;;;;5092389;28;20041;-73
2021/04/13 10:28:39;;;;;;;11.85;8.40;;;230.80;2252.80;;;;;;5079269;28;20481;-86
2021/04/13 10:31:30;;;;;;;11.43;8.60;;;230.80;2252.80;;;;;;5082071;28;20050;-66
2021/04/13 10:34:33;;;;;;;11.90;9.25;;;231.10;2252.80;;;;;;5081071;28;20028;-67
2021/04/13 10:37:33;;;;;;;10.82;7.90;;;230.80;2252.80;;;;;;5081653;28;20060;-68
2021/04/13 10:40:08;;;;;;;14.50;9.30;;;230.60;2252.80;;;;;;5084815;28;20089;-69
2021/04/13 10:42:33;;;;;;;10.57;8.32;;;230.50;2252.80;;;;;;5092251;28;20215;-68
2021/04/13 10:45:20;;;;;;;11.38;8.75;;;230.40;2252.80;;;;;;5096742;28;20594;-71
2021/04/13 10:48:13;;;;;;;17.60;8.88;;;205.70;2252.80;;;;;;5088226;28;20036;-70
2021/04/13 10:50:45;;;;;;;11.40;9.15;;;205.70;2252.80;;;;;;5080067;28;20020;-70
2021/04/13 10:53:23;;;;;;;11.93;9.38;;;230.40;2252.80;;;;;;5086480;28;20511;-69
2021/04/13 10:56:19;;;;;;;10.52;9.00;;;230.40;2252.80;;;;;;5103844;28;20080;-69
2021/04/13 10:59:14;;;;;;;12.80;8.70;;;230.40;2252.80;;;;;;5081645;28;20519;-69
2021/04/13 11:01:53;;;;;;;13.13;9.82;;;230.40;2252.80;;;;;;5078087;28;20032;-68
2021/04/13 11:04:28;;;;;;;11.90;9.32;;;205.50;2252.80;;;;;;5094852;28;20039;-69
2021/04/13 11:07:31;;;;;;;13.77;10.02;;;205.40;2252.80;;;;;;5082385;28;20032;-70
2021/04/13 11:09:56;;;;;;;12.27;8.70;;;205.50;2252.80;;;;;;5091646;28;20032;-69
2021/04/13 11:12:47;;;;;;;11.18;8.43;;;205.60;2252.80;;;;;;5079739;28;20380;-70
2021/04/13 11:15:31;;;;;;;10.68;8.48;;;205.50;2252.80;;;;;;5088080;28;20051;-71
2021/04/13 11:18:08;;;;;;;12.95;8.80;;;205.60;2252.80;;;;;;5080599;28;20024;-70
2021/04/13 11:20:45;;;;;;;9.27;7.78;;;205.40;2252.80;;;;;;5081974;28;20115;-71
2021/04/13 11:23:17;;;;;;;13.90;8.73;;;205.30;2252.80;;;;;;5083777;28;20055;-65
2021/04/13 11:26:01;;;;;;;12.20;9.77;;;205.30;2252.80;;;;;;5084797;28;20025;-68
2021/04/13 11:28:37;;;;;;;;;;;205.30;2252.80;;;;;;5079851;28;20023;-66
2021/04/13 11:31:33;;;;;;;13.00;8.85;;;205.40;2252.80;;;;;;5078792;28;19920;-66
2021/04/13 11:34:29;;;;;;;19.20;12.52;;;205.20;2252.80;;;;;;5074462;28;20025;-69
2021/04/13 11:37:27;;;;;;;13.65;10.57;;;205.10;2252.80;;;;;;5076760;28;20020;-67
2021/04/13 11:40:27;;;;;;;17.45;11.57;;;205.10;2252.80;;;;;;5082308;28;20020;-66
2021/04/13 11:42:57;;;;;;;27.23;17.52;;;205.00;2252.80;;;;;;5100349;28;20505;-65
2021/04/13 11:45:40;;;;;;;25.58;16.67;;;204.90;2252.80;;;;;;5089162;28;20016;-67
2021/04/13 11:48:52;;;;;;;14.73;11.05;;;205.10;2252.80;;;;;;5084119;28;20426;-68
2021/04/13 11:51:54;;;;;;;17.42;12.85;;;205.10;2252.80;;;;;;5086518;28;20036;-68
2021/04/13 11:54:37;;;;;;;28.17;15.15;;;205.30;2252.80;;;;;;5074774;28;20521;-66
2021/04/13 11:57:33;;;;;;;28.47;14.43;;;205.30;2252.80;;;;;;5090799;28;20036;-67
2021/04/13 12:00:18;;;;;;;15.30;11.65;;;205.30;2252.80;;;;;;5084024;28;20733;-67
2021/04/13 12:02:45;;;;;;;15.55;11.88;;;205.20;2252.80;;;;;;5082827;28;20070;-67
2021/04/13 12:05:38;;;;;;;21.67;13.73;;;205.10;2252.80;;;;;;5083268;28;20111;-65
2021/04/13 12:08:05;;;;;;;17.02;12.43;;;204.90;2252.80;;;;;;5076555;28;20037;-68
2021/04/13 12:10:31;;;;;;;13.15;10.85;;;204.90;2252.80;;;;;;5086729;28;20020;-69
2021/04/13 12:13:07;;;;;;;12.75;9.93;;;180.10;2252.80;;;;;;5084591;28;20028;-69
2021/04/13 12:15:33;;;;;;;13.68;10.93;;;204.80;2252.80;;;;;;5081730;28;20028;-84
2021/04/13 12:18:01;;;;;;;15.48;12.55;;;204.80;2252.80;;;;;;5090516;28;20038;-71
2021/04/13 12:20:31;;;;;;;20.50;14.82;;;204.80;2252.80;;;;;;5094220;28;20111;-86
2021/04/13 12:23:06;;;;;;;20.70;13.48;;;204.90;2252.80;;;;;;5091320;28;20036;-82
2021/04/13 12:25:44;;;;;;;15.18;11.45;;;204.90;2252.80;;;;;;5081227;28;20475;-87
2021/04/13 12:28:11;;;;;;;16.17;12.35;;;180.00;2252.80;;;;;;5092896;28;20538;-76
2021/04/13 12:30:43;;;;;;;12.75;10.63;;;180.00;2252.80;;;;;;5101986;28;20047;-82
2021/04/13 12:33:31;;;;;;;10.70;8.93;;;180.00;2252.80;;;;;;5095882;28;20484;-76
2021/04/13 12:36:08;;;;;;;12.02;9.32;;;180.10;2252.80;;;;;;5098824;28;20481;-87
2021/04/13 12:38:50;;;;;;;10.65;8.25;;;180.10;2252.80;;;;;;5089065;28;20481;-71
2021/04/13 12:41:53;;;;;;;10.48;8.75;;;204.80;2252.80;;;;;;5103747;28;20115;-85
2021/04/13 12:44:18;;;;;;;11.35;8.57;;;180.10;2252.80;;;;;;5094809;28;20024;-80
2021/04/13 12:46:47;;;;;;;10.38;9.10;;;204.80;2252.80;;;;;;5077332;28;20043;-86
2021/04/13 12:49:12;;;;;;;12.60;10.07;;;180.10;2252.80;;;;;;5094318;28;20100;-83
2021/04/13 12:52:04;;;;;;;11.20;9.15;;;180.10;2252.80;;;;;;5093419;28;20099;-80
2021/04/13 12:54:38;;;;;;;12.32;10.27;;;179.90;2252.80;;;;;;5097330;28;20039;-93
2021/04/13 12:57:22;;;;;;;15.05;10.73;;;179.80;2252.80;;;;;;5087164;27;20508;-89